createdAt,value
2022-11-09T00:01:03.199Z,11.07
2022-11-09T00:03:30.866Z,11.09
2022-11-09T00:05:59.980Z,11.08
2022-11-09T00:08:28.171Z,11.15
2022-11-09T00:11:02.430Z,10.86
2022-11-09T00:13:30.113Z,11.15
2022-11-09T00:16:02.233Z,10.86
2022-11-09T00:18:29.946Z,11.13
2022-11-09T00:20:57.833Z,11.04
2022-11-09T00:23:25.495Z,11.26
2022-11-09T00:25:52.854Z,10.99
2022-11-09T00:28:20.599Z,11.04
2022-11-09T00:30:47.963Z,10.77
2022-11-09T00:33:16.683Z,10.78
2022-11-09T00:35:44.524Z,10.76
2022-11-09T00:38:13.188Z,11.11
2022-11-09T00:40:40.895Z,10.97
2022-11-09T00:43:08.683Z,10.97
2022-11-09T00:45:36.063Z,11.32
2022-11-09T00:48:04.331Z,11.06
2022-11-09T00:50:32.067Z,10.95
2022-11-09T00:52:59.874Z,10.60
2022-11-09T00:55:27.861Z,10.80
2022-11-09T00:57:55.660Z,10.84
2022-11-09T01:00:24.348Z,11.21
2022-11-09T01:02:53.215Z,11.20
2022-11-09T01:05:21.071Z,11.20
2022-11-09T01:07:50.046Z,10.84
2022-11-09T01:10:17.408Z,10.78
2022-11-09T01:12:46.964Z,10.73
2022-11-09T01:15:15.503Z,10.82
2022-11-09T01:17:43.020Z,10.71
2022-11-09T01:20:11.441Z,11.21
2022-11-09T01:22:38.943Z,10.79
2022-11-09T01:25:06.677Z,10.78
2022-11-09T01:27:34.677Z,10.63
2022-11-09T01:30:02.192Z,10.97
2022-11-09T01:32:32.459Z,10.70
2022-11-09T01:35:00.143Z,10.61
2022-11-09T01:37:30.222Z,11.00
2022-11-09T01:39:57.812Z,10.54
2022-11-09T01:42:26.145Z,10.71
2022-11-09T01:45:18.591Z,11.08
2022-11-09T01:47:48.891Z,10.92
2022-11-09T01:50:19.594Z,10.71
2022-11-09T01:52:48.634Z,10.84
2022-11-09T01:55:19.946Z,10.60
2022-11-09T01:58:00.997Z,10.53
2022-11-09T02:00:29.050Z,10.63
2022-11-09T02:03:00.026Z,10.38
2022-11-09T02:05:30.294Z,10.50
2022-11-09T02:07:58.585Z,10.64
2022-11-09T02:10:34.150Z,10.86
2022-11-09T02:13:02.452Z,10.49
2022-11-09T02:15:40.164Z,10.34
2022-11-09T02:18:11.264Z,10.36
2022-11-09T02:20:52.798Z,10.61
2022-11-09T02:23:24.568Z,10.41
2022-11-09T02:26:01.725Z,10.20
2022-11-09T02:28:30.526Z,10.32
2022-11-09T02:30:59.720Z,10.30
2022-11-09T02:33:27.388Z,10.22
2022-11-09T02:35:55.242Z,10.27
2022-11-09T02:38:23.121Z,10.10
2022-11-09T02:40:51.554Z,10.08
2022-11-09T02:43:19.925Z,10.44
2022-11-09T02:45:48.319Z,10.37
2022-11-09T02:48:15.816Z,9.95
2022-11-09T02:50:43.182Z,10.10
2022-11-09T02:53:10.952Z,10.10
2022-11-09T02:55:38.955Z,9.63
2022-11-09T02:58:06.858Z,9.87
2022-11-09T03:00:35.404Z,10.37
2022-11-09T03:03:03.696Z,9.83
2022-11-09T03:05:31.115Z,10.41
2022-11-09T03:08:02.410Z,10.37
2022-11-09T03:10:30.326Z,10.45
2022-11-09T03:12:58.046Z,10.59
2022-11-09T03:15:25.924Z,10.39
2022-11-09T03:17:53.280Z,10.20
2022-11-09T03:20:21.239Z,10.09
2022-11-09T03:22:49.365Z,10.06
2022-11-09T03:25:17.863Z,10.10
2022-11-09T03:27:45.685Z,10.26
2022-11-09T03:30:13.588Z,10.01
2022-11-09T03:32:41.590Z,10.04
2022-11-09T03:35:09.379Z,10.49
2022-11-09T03:37:37.485Z,9.90
2022-11-09T03:40:05.536Z,10.19
2022-11-09T03:42:32.866Z,10.24
2022-11-09T03:45:00.423Z,10.32
2022-11-09T03:47:27.778Z,10.19
2022-11-09T03:49:55.548Z,10.35
2022-11-09T03:52:23.278Z,10.29
2022-11-09T03:54:50.604Z,10.20
2022-11-09T03:57:18.215Z,10.21
2022-11-09T03:59:46.262Z,10.08
2022-11-09T04:02:13.621Z,10.12
2022-11-09T04:04:41.295Z,9.86
2022-11-09T04:07:10.749Z,10.26
2022-11-09T04:09:38.390Z,10.29
2022-11-09T04:12:06.185Z,10.07
2022-11-09T04:14:33.743Z,10.26
2022-11-09T04:17:01.060Z,10.31
2022-11-09T04:19:28.904Z,10.08
2022-11-09T04:21:56.320Z,10.17
2022-11-09T04:24:23.823Z,10.00
2022-11-09T04:26:51.422Z,10.11
2022-11-09T04:29:18.806Z,9.96
2022-11-09T04:31:48.991Z,9.90
2022-11-09T04:34:17.325Z,9.82
2022-11-09T04:36:45.038Z,10.10
2022-11-09T04:39:12.815Z,10.28
2022-11-09T04:41:40.644Z,10.10
2022-11-09T04:44:08.251Z,9.80
2022-11-09T04:46:35.618Z,9.65
2022-11-09T04:49:03.424Z,9.98
2022-11-09T04:51:30.759Z,9.88
2022-11-09T04:53:58.338Z,9.94
2022-11-09T04:56:25.970Z,9.78
2022-11-09T04:58:53.323Z,9.83
2022-11-09T05:01:20.875Z,9.67
2022-11-09T05:03:48.790Z,9.83
2022-11-09T05:06:31.996Z,9.94
2022-11-09T05:09:07.598Z,10.01
2022-11-09T05:11:36.013Z,10.13
2022-11-09T05:14:04.188Z,10.40
2022-11-09T05:16:32.081Z,9.86
2022-11-09T05:18:59.587Z,9.70
2022-11-09T05:21:27.644Z,9.94
2022-11-09T05:24:00.968Z,9.46
2022-11-09T05:26:33.852Z,9.47
2022-11-09T05:29:03.981Z,9.69
2022-11-09T05:31:32.032Z,9.90
2022-11-09T05:34:00.101Z,10.15
2022-11-09T05:36:28.543Z,10.24
2022-11-09T05:38:56.991Z,10.02
2022-11-09T05:41:24.332Z,9.89
2022-11-09T05:43:52.345Z,9.79
2022-11-09T05:46:20.122Z,10.06
2022-11-09T05:48:47.613Z,9.75
2022-11-09T05:51:15.460Z,9.72
2022-11-09T05:53:46.436Z,10.17
2022-11-09T05:56:15.009Z,10.21
2022-11-09T05:58:43.168Z,10.41
2022-11-09T06:01:15.965Z,10.23
2022-11-09T06:03:44.715Z,10.18
2022-11-09T06:06:14.343Z,9.72
2022-11-09T06:08:42.311Z,10.01
2022-11-09T06:11:12.601Z,10.10
2022-11-09T06:13:41.662Z,10.16
2022-11-09T06:16:10.164Z,9.75
2022-11-09T06:18:38.146Z,9.80
2022-11-09T06:21:06.313Z,9.72
2022-11-09T06:23:34.430Z,9.89
2022-11-09T06:26:09.193Z,9.55
2022-11-09T06:28:38.144Z,9.77
2022-11-09T06:31:07.585Z,9.80
2022-11-09T06:33:36.159Z,9.82
2022-11-09T06:36:03.994Z,9.51
2022-11-09T06:38:32.385Z,9.68
2022-11-09T06:41:00.360Z,9.73
2022-11-09T06:43:28.574Z,9.53
2022-11-09T06:45:56.857Z,9.79
2022-11-09T06:48:24.872Z,9.99
2022-11-09T06:50:52.556Z,9.97
2022-11-09T06:53:20.682Z,10.04
2022-11-09T06:55:50.892Z,10.07
2022-11-09T06:58:19.895Z,9.89
2022-11-09T07:00:47.640Z,10.50
2022-11-09T07:03:16.760Z,10.36
2022-11-09T07:05:45.086Z,10.00
2022-11-09T07:08:13.949Z,9.95
2022-11-09T07:10:41.743Z,9.62
2022-11-09T07:13:09.765Z,9.79
2022-11-09T07:15:38.341Z,9.72
2022-11-09T07:18:07.971Z,9.52
2022-11-09T07:20:35.534Z,9.68
2022-11-09T07:23:03.481Z,10.38
2022-11-09T07:25:32.429Z,10.14
2022-11-09T07:28:08.471Z,9.96
2022-11-09T07:30:39.517Z,9.55
2022-11-09T07:33:15.283Z,9.94
2022-11-09T07:35:43.054Z,10.38
2022-11-09T07:38:11.128Z,9.87
2022-11-09T07:40:38.800Z,9.60
2022-11-09T07:43:07.508Z,9.83
2022-11-09T07:45:36.345Z,9.68
2022-11-09T07:48:06.918Z,9.94
2022-11-09T07:50:36.133Z,9.63
2022-11-09T07:53:03.714Z,9.65
2022-11-09T07:55:31.442Z,9.86
2022-11-09T07:58:00.723Z,10.29
2022-11-09T08:00:30.191Z,10.31
2022-11-09T08:02:58.107Z,10.18
2022-11-09T08:05:26.032Z,10.28
2022-11-09T08:07:57.691Z,10.32
2022-11-09T08:10:26.564Z,10.11
2022-11-09T08:12:58.975Z,10.49
2022-11-09T08:15:27.667Z,10.36
2022-11-09T08:17:59.198Z,9.76
2022-11-09T08:20:26.852Z,9.89
2022-11-09T08:22:58.330Z,10.11
2022-11-09T08:25:29.038Z,10.01
2022-11-09T08:27:57.409Z,10.45
2022-11-09T08:30:25.309Z,10.01
2022-11-09T08:32:53.272Z,10.54
2022-11-09T08:35:22.518Z,10.61
2022-11-09T08:37:50.844Z,10.58
2022-11-09T08:40:27.585Z,10.43
2022-11-09T08:42:55.389Z,10.25
2022-11-09T08:45:23.228Z,10.50
2022-11-09T08:50:58.974Z,10.39
2022-11-09T08:53:27.937Z,10.21
2022-11-09T08:55:55.644Z,10.13
2022-11-09T08:58:23.777Z,10.10
2022-11-09T09:00:51.823Z,10.55
2022-11-09T09:03:19.150Z,10.34
2022-11-09T09:05:46.500Z,10.30
2022-11-09T09:08:15.708Z,10.38
2022-11-09T09:10:43.264Z,10.67
2022-11-09T09:13:10.697Z,10.66
2022-11-09T09:15:38.361Z,10.53
2022-11-09T09:18:05.957Z,10.53
2022-11-09T09:20:33.386Z,10.86
2022-11-09T09:23:01.561Z,10.72
2022-11-09T09:25:28.928Z,10.74
2022-11-09T09:27:56.693Z,10.73
2022-11-09T09:30:24.510Z,10.75
2022-11-09T09:32:52.260Z,10.49
2022-11-09T09:35:19.737Z,10.68
2022-11-09T09:37:47.471Z,10.90
2022-11-09T09:40:42.714Z,10.57
2022-11-09T09:43:19.888Z,10.82
2022-11-09T09:45:51.668Z,10.60
2022-11-09T09:48:26.778Z,10.71
2022-11-09T09:50:59.700Z,10.89
2022-11-09T09:53:32.691Z,10.96
2022-11-09T09:56:04.936Z,10.91
2022-11-09T09:58:34.471Z,10.77
2022-11-09T10:01:12.426Z,10.77
2022-11-09T10:03:40.457Z,11.07
2022-11-09T10:06:37.838Z,11.24
2022-11-09T10:09:08.423Z,11.25
2022-11-09T10:11:51.739Z,11.49
2022-11-09T10:14:28.407Z,11.02
2022-11-09T10:17:01.360Z,11.11
2022-11-09T10:20:20.040Z,10.69
2022-11-09T10:23:15.533Z,10.87
2022-11-09T10:29:09.091Z,11.27
2022-11-09T10:31:31.410Z,11.21
2022-11-09T10:34:08.238Z,11.43
2022-11-09T10:36:48.267Z,10.91
2022-11-09T10:39:16.212Z,11.11
2022-11-09T10:42:02.131Z,11.32
2022-11-09T10:44:48.016Z,11.45
2022-11-09T10:47:50.526Z,11.33
2022-11-09T10:50:51.911Z,11.42
2022-11-09T10:53:37.620Z,11.12
2022-11-09T10:56:23.529Z,11.31
2022-11-09T10:59:31.041Z,11.43
2022-11-09T11:02:26.245Z,11.60
2022-11-09T11:05:18.241Z,11.55
2022-11-09T11:08:23.610Z,11.38
2022-11-09T11:11:36.328Z,11.25
2022-11-09T11:14:32.684Z,11.62
2022-11-09T11:17:26.734Z,11.59
2022-11-09T11:20:36.529Z,11.72
2022-11-09T11:23:25.667Z,11.15
2022-11-09T11:26:23.379Z,11.35
2022-11-09T11:29:33.512Z,11.79
2022-11-09T11:32:21.244Z,11.49
2022-11-09T11:35:42.037Z,11.36
2022-11-09T11:38:38.651Z,11.94
2022-11-09T11:41:45.791Z,11.76
2022-11-09T11:45:07.122Z,11.68
2022-11-09T11:48:07.485Z,11.87
2022-11-09T11:51:19.085Z,11.60
2022-11-09T11:54:13.686Z,11.99
2022-11-09T11:57:30.863Z,11.76
2022-11-09T12:00:20.246Z,11.74
2022-11-09T12:03:21.389Z,11.69
2022-11-09T12:06:43.992Z,12.06
2022-11-09T12:10:06.255Z,12.05
2022-11-09T12:13:03.261Z,11.76
2022-11-09T12:16:13.020Z,12.24
2022-11-09T12:19:11.416Z,12.23
2022-11-09T12:22:07.251Z,12.15
2022-11-09T12:25:11.662Z,12.09
2022-11-09T12:28:15.907Z,11.83
2022-11-09T12:31:10.895Z,12.07
2022-11-09T12:34:01.525Z,12.52
2022-11-09T12:36:52.890Z,12.65
2022-11-09T12:39:46.797Z,12.47
2022-11-09T12:42:40.988Z,12.01
2022-11-09T12:45:36.048Z,11.91
2022-11-09T12:48:31.029Z,12.25
2022-11-09T12:51:17.350Z,12.13
2022-11-09T12:54:11.204Z,12.45
2022-11-09T12:57:04.889Z,12.46
2022-11-09T12:59:54.509Z,12.29
2022-11-09T13:02:57.568Z,11.98
2022-11-09T13:05:44.936Z,12.07
2022-11-09T13:08:31.408Z,12.37
2022-11-09T13:11:17.410Z,11.95
2022-11-09T13:14:22.101Z,12.07
2022-11-09T13:17:23.657Z,12.25
2022-11-09T13:20:55.951Z,12.24
2022-11-09T13:26:47.162Z,12.04
2022-11-09T13:29:41.855Z,12.37
2022-11-09T13:32:33.702Z,12.02
2022-11-09T13:35:38.504Z,12.31
2022-11-09T13:38:26.593Z,12.07
2022-11-09T13:41:31.990Z,12.50
2022-11-09T13:44:34.187Z,12.36
2022-11-09T13:47:27.857Z,12.06
2022-11-09T13:50:25.063Z,12.22
2022-11-09T13:53:28.539Z,12.66
2022-11-09T13:56:29.254Z,12.17
2022-11-09T13:59:32.576Z,12.65
2022-11-09T14:02:24.832Z,12.08
2022-11-09T14:05:43.725Z,12.44
2022-11-09T14:08:41.149Z,12.28
2022-11-09T14:11:47.566Z,12.10
2022-11-09T14:14:59.278Z,12.20
2022-11-09T14:17:55.914Z,12.18
2022-11-09T14:20:51.204Z,12.23
2022-11-09T14:23:37.386Z,12.43
2022-11-09T14:26:24.966Z,11.76
2022-11-09T14:29:21.982Z,11.88
2022-11-09T14:32:30.616Z,11.98
2022-11-09T14:35:27.697Z,11.61
2022-11-09T14:38:23.482Z,12.30
2022-11-09T14:41:25.602Z,11.74
2022-11-09T14:44:28.316Z,11.58
2022-11-09T14:47:19.958Z,12.15
2022-11-09T14:50:09.398Z,12.56
2022-11-09T14:52:56.097Z,12.59
2022-11-09T14:55:42.550Z,12.10
2022-11-09T14:58:28.766Z,12.08
2022-11-09T15:01:17.585Z,12.20
2022-11-09T15:04:20.104Z,11.99
2022-11-09T15:07:06.536Z,11.98
2022-11-09T15:09:57.695Z,12.04
2022-11-09T15:12:50.290Z,12.15
2022-11-09T15:15:36.560Z,11.97
2022-11-09T15:18:30.424Z,11.71
2022-11-09T15:21:25.154Z,12.02
2022-11-09T15:24:11.041Z,12.35
2022-11-09T15:26:57.960Z,12.18
2022-11-09T15:29:44.572Z,12.29
2022-11-09T15:32:36.873Z,12.23
2022-11-09T15:35:23.352Z,12.13
2022-11-09T15:38:40.960Z,12.14
2022-11-09T15:41:27.332Z,12.17
2022-11-09T15:44:14.607Z,12.09
2022-11-09T15:47:00.686Z,11.71
2022-11-09T15:49:46.840Z,11.91
2022-11-09T15:52:32.881Z,11.89
2022-11-09T15:55:22.060Z,11.84
2022-11-09T15:58:12.608Z,11.32
2022-11-09T16:00:58.754Z,11.67
2022-11-09T16:03:44.717Z,11.49
2022-11-09T16:06:31.317Z,11.70
2022-11-09T16:09:17.703Z,11.74
2022-11-09T16:12:04.240Z,11.92
2022-11-09T16:14:50.767Z,11.92
2022-11-09T16:17:36.623Z,11.73
2022-11-09T16:20:22.974Z,11.77
2022-11-09T16:23:09.258Z,11.75
2022-11-09T16:25:55.079Z,11.83
2022-11-09T16:28:41.678Z,12.20
2022-11-09T16:31:50.170Z,11.99
2022-11-09T16:34:33.759Z,11.89
2022-11-09T16:37:20.848Z,11.99
2022-11-09T16:40:11.235Z,12.05
2022-11-09T16:42:59.376Z,11.96
2022-11-09T16:45:48.303Z,12.05
2022-11-09T16:48:34.503Z,12.04
2022-11-09T16:51:22.017Z,11.99
2022-11-09T16:54:08.095Z,11.95
2022-11-09T16:56:55.177Z,12.58
2022-11-09T16:59:41.490Z,12.37
2022-11-09T17:02:28.450Z,11.97
2022-11-09T17:05:14.645Z,12.23
2022-11-09T17:08:00.403Z,12.54
2022-11-09T17:10:47.445Z,12.90
2022-11-09T17:13:33.671Z,13.00
2022-11-09T17:16:20.478Z,13.08
2022-11-09T17:19:06.708Z,12.64
2022-11-09T17:21:52.684Z,12.55
2022-11-09T17:24:38.967Z,12.37
2022-11-09T17:27:25.115Z,12.44
2022-11-09T17:30:12.220Z,12.56
2022-11-09T17:32:58.986Z,12.78
2022-11-09T17:35:45.867Z,12.64
2022-11-09T17:38:32.384Z,12.59
2022-11-09T17:41:20.158Z,12.35
2022-11-09T17:44:07.385Z,12.18
2022-11-09T17:46:53.742Z,12.19
2022-11-09T17:49:40.799Z,12.27
2022-11-09T17:52:27.645Z,12.55
2022-11-09T17:55:14.797Z,12.72
2022-11-09T17:58:02.853Z,12.46
2022-11-09T18:00:49.540Z,12.70
2022-11-09T18:03:37.213Z,12.55
2022-11-09T18:06:24.494Z,12.58
2022-11-09T18:09:39.526Z,12.09
2022-11-09T18:12:17.812Z,12.63
2022-11-09T18:15:04.783Z,12.53
2022-11-09T18:17:50.958Z,12.33
2022-11-09T18:20:39.284Z,12.44
2022-11-09T18:23:26.360Z,11.99
2022-11-09T18:26:13.512Z,12.30
2022-11-09T18:29:00.934Z,12.45
2022-11-09T18:31:47.716Z,12.42
2022-11-09T18:34:35.174Z,12.53
2022-11-09T18:37:22.882Z,12.61
2022-11-09T18:40:10.953Z,12.67
2022-11-09T18:42:57.604Z,12.79
2022-11-09T18:45:45.340Z,12.91
2022-11-09T18:48:32.214Z,13.07
2022-11-09T18:51:19.054Z,12.71
2022-11-09T18:54:05.409Z,12.97
2022-11-09T18:56:52.025Z,13.06
2022-11-09T18:59:40.958Z,12.87
2022-11-09T19:02:28.511Z,12.86
2022-11-09T19:05:15.455Z,12.50
2022-11-09T19:08:01.634Z,12.72
2022-11-09T19:10:48.700Z,12.86
2022-11-09T19:13:35.201Z,12.99
2022-11-09T19:16:22.372Z,12.98
2022-11-09T19:19:12.856Z,13.03
2022-11-09T19:22:00.073Z,12.79
2022-11-09T19:24:46.686Z,12.87
2022-11-09T19:27:33.203Z,13.14
2022-11-09T19:30:19.934Z,13.20
2022-11-09T19:33:07.145Z,13.22
2022-11-09T19:36:23.325Z,13.09
2022-11-09T19:39:00.018Z,12.98
2022-11-09T19:41:47.143Z,12.79
2022-11-09T19:44:33.468Z,12.43
2022-11-09T19:47:19.791Z,12.67
2022-11-09T19:50:07.047Z,12.67
2022-11-09T19:52:53.459Z,12.88
2022-11-09T19:55:39.397Z,12.96
2022-11-09T19:58:25.268Z,12.84
2022-11-09T20:01:12.311Z,13.02
2022-11-09T20:04:00.750Z,12.94
2022-11-09T20:06:47.811Z,12.96
2022-11-09T20:09:34.803Z,13.12
2022-11-09T20:12:45.302Z,12.90
2022-11-09T20:15:33.131Z,13.15
2022-11-09T20:18:20.783Z,13.25
2022-11-09T20:21:07.039Z,13.18
2022-11-09T20:23:53.876Z,13.23
2022-11-09T20:26:41.266Z,13.43
2022-11-09T20:29:29.316Z,13.36
2022-11-09T20:32:21.365Z,13.23
2022-11-09T20:35:12.963Z,13.42
2022-11-09T20:37:59.727Z,13.21
2022-11-09T20:40:59.935Z,13.06
2022-11-09T20:43:46.791Z,12.88
2022-11-09T20:46:36.480Z,13.15
2022-11-09T20:49:23.399Z,13.39
2022-11-09T20:52:09.615Z,13.23
2022-11-09T20:54:56.810Z,13.20
2022-11-09T20:57:43.463Z,13.17
2022-11-09T21:00:31.392Z,13.01
2022-11-09T21:03:18.646Z,12.92
2022-11-09T21:06:06.376Z,12.99
2022-11-09T21:08:55.104Z,13.05
2022-11-09T21:12:01.358Z,13.01
2022-11-09T21:14:47.428Z,12.90
2022-11-09T21:17:33.300Z,13.16
2022-11-09T21:20:19.221Z,13.11
2022-11-09T21:23:11.540Z,13.03
2022-11-09T21:26:18.590Z,13.01
2022-11-09T21:29:24.300Z,13.03
2022-11-09T21:32:11.593Z,13.02
2022-11-09T21:34:58.014Z,13.01
2022-11-09T21:37:43.974Z,12.94
2022-11-09T21:40:29.924Z,13.11
2022-11-09T21:43:16.394Z,13.26
2022-11-09T21:46:02.444Z,13.03
2022-11-09T21:48:49.106Z,13.11
2022-11-09T21:51:36.382Z,13.18
2022-11-09T21:54:22.675Z,13.30
2022-11-09T21:57:08.384Z,13.34
2022-11-09T21:59:54.557Z,13.47
2022-11-09T22:02:40.328Z,13.25
2022-11-09T22:05:26.780Z,13.05
2022-11-09T22:08:12.776Z,12.97
2022-11-09T22:11:06.680Z,13.34
2022-11-09T22:14:27.721Z,13.41
2022-11-09T22:17:13.306Z,13.22
2022-11-09T22:20:17.919Z,13.28
2022-11-09T22:23:07.956Z,13.40
2022-11-09T22:25:53.801Z,13.16
2022-11-09T22:28:39.735Z,13.43
2022-11-09T22:31:26.138Z,13.55
2022-11-09T22:34:12.011Z,13.48
2022-11-09T22:36:57.728Z,13.47
2022-11-09T22:39:47.253Z,13.47
2022-11-09T22:42:33.832Z,13.57
2022-11-09T22:45:19.580Z,13.62
2022-11-09T22:48:05.525Z,13.48
2022-11-09T22:50:51.201Z,13.52
2022-11-09T22:53:37.690Z,13.64
2022-11-09T22:56:23.337Z,13.71
2022-11-09T22:59:09.080Z,13.63
2022-11-09T23:04:58.855Z,13.48
2022-11-09T23:07:44.666Z,13.41
2022-11-09T23:10:30.933Z,13.56
2022-11-09T23:13:17.115Z,13.61
2022-11-09T23:16:05.872Z,13.56
2022-11-09T23:18:55.098Z,13.41
2022-11-09T23:21:41.724Z,13.37
2022-11-09T23:24:46.379Z,13.71
2022-11-09T23:27:32.094Z,13.53
2022-11-09T23:30:18.572Z,13.48
2022-11-09T23:33:04.631Z,13.63
2022-11-09T23:35:50.544Z,13.53
2022-11-09T23:38:37.994Z,13.54
2022-11-09T23:41:24.386Z,13.54
2022-11-09T23:44:10.436Z,13.69
2022-11-09T23:46:56.178Z,13.59
2022-11-09T23:49:42.612Z,13.57
2022-11-09T23:52:29.164Z,13.62
2022-11-09T23:55:15.252Z,13.50
2022-11-09T23:58:02.396Z,13.60
